This is the latest recevied weather packets stored in our database for station/object NEWPRT. If no packets are shown the sender has not sent any weather packets the latest 1 day(s).
| Time | Temp. | Humidity | Pressure | Rain* | Wind** | Luminosity | Snow |
|---|---|---|---|---|---|---|---|
| 1778092723 | - | 57% | 1023.2 hPa | 0 mm | - | - | - |
| 1778092400 | - | 59% | 1023.4 hPa | 0 mm | - | - | - |
| 1778092077 | - | 58% | 1023.2 hPa | 0 mm | - | - | - |
| 1778091431 | - | 57% | 1023 hPa | 0 mm | - | - | - |
| 1778090785 | - | 57% | 1023 hPa | 0 mm | - | - | - |
| 1778090140 | - | 61% | 1023 hPa | 0 mm | - | - | - |
| 1778089816 | - | 62% | 1022.8 hPa | 0 mm | - | - | - |
| 1778089493 | - | 60% | 1022.9 hPa | 0 mm | - | - | - |
| 1778089170 | - | 59% | 1022.8 hPa | 0 mm | - | - | - |
| 1778088524 | - | 60% | 1022.7 hPa | 0 mm | - | - | - |
| 1778087878 | - | 60% | 1022.6 hPa | 0 mm | - | - | - |
| 1778087555 | - | 60% | 1022.5 hPa | 0 mm | - | - | - |
| 1778086586 | - | 60% | 1022.6 hPa | 0 mm | - | - | - |
| 1778086263 | - | 62% | 1022.6 hPa | 0 mm | - | - | - |
| 1778085294 | - | 65% | 1022.7 hPa | 0 mm | - | - | - |
| 1778082710 | - | 64% | 1022.4 hPa | 0 mm | - | - | - |
| 1778078512 | - | 62% | 1021.6 hPa | 0 mm | - | - | - |
| 1778075927 | - | 65% | 1021.8 hPa | 0 mm | - | - | - |
| 1778073666 | - | 63% | 1021.2 hPa | 0 mm | - | - | - |
| 1778073020 | - | 63% | 1021.1 hPa | 0 mm | - | - | - |
| 1778071404 | - | 66% | 1021 hPa | 0 mm | - | - | - |
| 1778070113 | - | 65% | 1020.3 hPa | 0 mm | - | - | - |
| 1778069467 | - | 66% | 1020.9 hPa | 0 mm | - | - | - |
| 1778069144 | - | 66% | 1020.8 hPa | 0 mm | - | - | - |
| 1778068497 | - | 66% | 1020.9 hPa | 0 mm | - | - | - |
* Rain latest hour (hover to see other rain measurements)
** Current wind speed in m/s (hover to see current wind gust speed)